Terminal Aerodrome Forecast
Issued by NWS Springfield, MO

Home | Current Version | Previous Version | Text Only | Print | Product List | Glossary On
Versions: 1 2 3 4 5 6 7 8 9 10 11 12 13 14 15 16 17 18 19 20 21
093
FTUS43 KSGF 251302 AAC
TAFSGF
TAF AMD
KSGF 251302Z 2513/2612 34012KT 5SM -TSRA BR BKN020CB
      TEMPO 2513/2515 35007KT 1SM +TSRA BKN009 OVC020CB
     FM251500 03007KT P6SM VCTS BKN035CB
     FM251800 03007KT P6SM BKN200
     FM260600 09005KT P6SM BKN200=

USA.gov is the U.S. government's official web portal to all federal, state and local government web resources and services.